Time;durP1;ratioP1;P1;durP2;ratioP2;P2;SDS_P1;SDS_P2;PMS_P1;PMS_P2;Temp;Humidity;BMP_temperature;BMP_pressure;BME280_temperature;BME280_humidity;BME280_pressure;Samples;Min_cycle;Max_cycle;Signal;HPM_P1;HPM_P2
2022/10/27 00:02:13;;;;;;;17.08;6.80;;;9.80;99.90;;;;;;5047746;28;20044;-67
2022/10/27 00:04:38;;;;;;;10.82;5.90;;;9.70;99.90;;;;;;5044965;28;20073;-66
2022/10/27 00:07:04;;;;;;;11.93;6.43;;;9.60;99.90;;;;;;5048476;28;20136;-67
2022/10/27 00:09:30;;;;;;;14.02;6.78;;;9.50;99.90;;;;;;5047188;28;20071;-67
2022/10/27 00:11:56;;;;;;;16.88;7.18;;;9.60;99.90;;;;;;5045778;28;20070;-68
2022/10/27 00:14:22;;;;;;;21.15;7.30;;;9.60;99.90;;;;;;5047507;28;20072;-70
2022/10/27 00:16:53;;;;;;;13.48;7.10;;;9.50;99.90;;;;;;5046169;28;20049;-68
2022/10/27 00:19:20;;;;;;;16.13;7.15;;;9.50;99.90;;;;;;5046534;28;20029;-66
2022/10/27 00:21:46;;;;;;;12.52;6.25;;;9.60;99.90;;;;;;5047320;28;20568;-67
2022/10/27 00:24:12;;;;;;;11.90;6.28;;;9.50;99.90;;;;;;5047469;28;20032;-66
2022/10/27 00:26:37;;;;;;;19.58;6.18;;;9.50;99.90;;;;;;5046977;28;20102;-67
2022/10/27 00:29:03;;;;;;;14.55;6.45;;;9.40;99.90;;;;;;5046999;28;20082;-66
2022/10/27 00:31:29;;;;;;;12.82;5.60;;;9.40;99.90;;;;;;5046729;28;20094;-68
2022/10/27 00:33:54;;;;;;;13.23;6.38;;;9.40;99.90;;;;;;5046138;28;20473;-68
2022/10/27 00:36:23;;;;;;;10.98;5.75;;;9.30;99.90;;;;;;5047516;28;20048;-68
2022/10/27 00:38:52;;;;;;;15.15;7.18;;;9.30;99.90;;;;;;5047161;28;20485;-68
2022/10/27 00:41:36;;;;;;;13.70;5.80;;;9.30;99.90;;;;;;5047375;28;20033;-68
2022/10/27 00:44:25;;;;;;;12.23;6.63;;;9.30;99.90;;;;;;5045865;28;20037;-66
2022/10/27 00:46:50;;;;;;;11.48;6.43;;;9.20;99.90;;;;;;5037425;28;20063;-68
2022/10/27 00:49:21;;;;;;;11.35;6.10;;;9.20;99.90;;;;;;5046232;28;20037;-66
2022/10/27 00:51:50;;;;;;;11.60;5.75;;;9.20;99.90;;;;;;5047624;28;20758;-68
2022/10/27 00:54:17;;;;;;;15.23;5.82;;;9.20;99.90;;;;;;5045983;28;20398;-66
2022/10/27 00:56:46;;;;;;;10.07;5.63;;;9.20;99.90;;;;;;5047402;28;20025;-68
2022/10/27 00:59:12;;;;;;;17.05;6.45;;;9.20;99.90;;;;;;5046273;28;20390;-69
2022/10/27 01:01:38;;;;;;;11.60;5.53;;;9.30;99.90;;;;;;5046894;28;20561;-67
2022/10/27 01:04:04;;;;;;;9.77;5.10;;;9.30;99.90;;;;;;5044873;28;20029;-67
2022/10/27 01:06:31;;;;;;;12.73;6.15;;;9.30;99.90;;;;;;5045787;28;20634;-66
2022/10/27 01:08:57;;;;;;;8.93;5.78;;;9.20;99.90;;;;;;5047116;28;20039;-67
2022/10/27 01:11:23;;;;;;;10.27;5.68;;;9.10;99.90;;;;;;5047616;28;20029;-66
2022/10/27 01:13:49;;;;;;;9.50;5.50;;;9.10;99.90;;;;;;5045646;28;20072;-66
2022/10/27 01:16:32;;;;;;;14.55;5.90;;;9.00;99.90;;;;;;5046926;28;20575;-68
2022/10/27 01:19:20;;;;;;;12.38;6.25;;;9.00;99.90;;;;;;5045353;28;20417;-68
2022/10/27 01:22:00;;;;;;;11.95;6.00;;;9.00;99.90;;;;;;5045146;28;20276;-65
2022/10/27 01:24:44;;;;;;;14.15;6.10;;;8.90;99.90;;;;;;5048014;28;20063;-70
2022/10/27 01:27:26;;;;;;;15.15;6.68;;;8.90;99.90;;;;;;5049521;28;20160;-65
2022/10/27 01:30:01;;;;;;;17.42;6.07;;;8.90;99.90;;;;;;5036273;28;20493;-69
2022/10/27 01:32:37;;;;;;;11.82;6.53;;;8.90;99.90;;;;;;5049752;28;20029;-69
2022/10/27 01:35:29;;;;;;;12.80;6.10;;;9.00;99.90;;;;;;5049745;28;20409;-70
2022/10/27 01:38:09;;;;;;;14.35;6.05;;;9.00;99.90;;;;;;5049751;28;20033;-67
2022/10/27 01:40:44;;;;;;;11.07;5.75;;;8.90;99.90;;;;;;5049486;28;20039;-66
2022/10/27 01:43:16;;;;;;;15.93;5.93;;;8.90;99.90;;;;;;5050095;28;20039;-67
2022/10/27 01:45:42;;;;;;;13.02;5.93;;;8.80;99.90;;;;;;5048057;28;20056;-66
2022/10/27 01:48:10;;;;;;;16.00;5.80;;;8.70;99.90;;;;;;5051280;28;20178;-66
2022/10/27 01:50:38;;;;;;;17.90;6.80;;;8.80;99.90;;;;;;5047091;28;20478;-68
2022/10/27 01:53:04;;;;;;;12.98;6.20;;;8.80;99.90;;;;;;5048907;28;20082;-68
2022/10/27 01:55:33;;;;;;;16.02;6.25;;;8.80;99.90;;;;;;5048572;28;20037;-69
2022/10/27 01:58:36;;;;;;;12.57;6.43;;;8.70;99.90;;;;;;5050584;28;20072;-67
2022/10/27 02:01:13;;;;;;;10.35;5.97;;;8.60;99.90;;;;;;5049956;28;20059;-69
2022/10/27 02:03:49;;;;;;;15.38;5.97;;;8.60;99.90;;;;;;5030441;28;20095;-67
2022/10/27 02:06:43;;;;;;;13.27;6.10;;;8.60;99.90;;;;;;5046668;28;20397;-69
2022/10/27 02:09:22;;;;;;;17.13;6.30;;;8.60;99.90;;;;;;5042238;28;20106;-67
2022/10/27 02:11:51;;;;;;;13.02;5.75;;;8.60;99.90;;;;;;5048690;28;20540;-67
2022/10/27 02:14:18;;;;;;;14.68;6.93;;;8.60;99.90;;;;;;5050669;28;20041;-68
2022/10/27 02:16:49;;;;;;;12.98;6.55;;;8.70;99.90;;;;;;5047197;28;20036;-68
2022/10/27 02:19:23;;;;;;;;;;;8.70;99.90;;;;;;5051201;28;20024;-65
2022/10/27 02:21:52;;;;;;;12.50;5.95;;;8.70;99.90;;;;;;5047562;28;19919;-65
2022/10/27 02:24:18;;;;;;;12.35;5.93;;;8.70;99.90;;;;;;5050005;28;20037;-67
2022/10/27 02:26:52;;;;;;;11.35;6.22;;;8.60;99.90;;;;;;5049504;28;20394;-67
2022/10/27 02:29:41;;;;;;;11.88;5.55;;;8.60;99.90;;;;;;5049633;28;20037;-67
2022/10/27 02:32:10;;;;;;;16.48;6.03;;;8.50;99.90;;;;;;5045637;28;20036;-67
2022/10/27 02:34:37;;;;;;;13.95;6.55;;;8.40;99.90;;;;;;5035642;28;20032;-66
2022/10/27 02:37:04;;;;;;;12.40;5.75;;;8.30;99.90;;;;;;5041094;28;20055;-67
2022/10/27 02:39:30;;;;;;;15.80;6.22;;;8.40;99.90;;;;;;5047567;28;20453;-68
2022/10/27 02:41:56;;;;;;;11.57;6.03;;;8.40;99.90;;;;;;5048822;28;20131;-67
2022/10/27 02:44:21;;;;;;;13.38;5.88;;;8.40;99.90;;;;;;5049879;28;20500;-67
2022/10/27 02:46:47;;;;;;;13.88;5.97;;;8.40;99.90;;;;;;5048644;28;20053;-67
2022/10/27 02:49:13;;;;;;;13.60;5.97;;;8.40;99.90;;;;;;5048333;28;20048;-67
2022/10/27 02:51:38;;;;;;;13.88;5.57;;;8.30;99.90;;;;;;5047770;28;20037;-67
2022/10/27 02:54:04;;;;;;;10.30;5.32;;;8.30;99.90;;;;;;5050083;28;20051;-67
2022/10/27 02:56:29;;;;;;;12.63;5.55;;;8.30;99.90;;;;;;5048024;28;20468;-67
2022/10/27 02:58:55;;;;;;;13.82;6.47;;;8.30;99.90;;;;;;5047323;28;20040;-66
2022/10/27 03:01:20;;;;;;;10.77;5.32;;;8.30;99.90;;;;;;5045399;28;20036;-66
2022/10/27 03:03:46;;;;;;;9.27;5.45;;;8.30;99.90;;;;;;5046889;28;20029;-67
2022/10/27 03:06:12;;;;;;;12.32;5.18;;;8.20;99.90;;;;;;5044462;28;20434;-67
2022/10/27 03:08:37;;;;;;;12.25;5.25;;;8.20;99.90;;;;;;5041265;28;20044;-66
2022/10/27 03:11:03;;;;;;;11.15;5.55;;;8.20;99.90;;;;;;5040269;28;20037;-68
2022/10/27 03:13:29;;;;;;;13.55;5.80;;;8.10;99.90;;;;;;5045259;28;20036;-67
2022/10/27 03:15:54;;;;;;;19.08;5.88;;;8.00;99.90;;;;;;5048260;28;20029;-67
2022/10/27 03:18:20;;;;;;;10.65;5.70;;;8.00;99.90;;;;;;5044301;28;20037;-67
2022/10/27 03:20:46;;;;;;;15.15;5.25;;;7.90;99.90;;;;;;5044821;28;20021;-67
2022/10/27 03:23:12;;;;;;;12.05;5.47;;;7.80;99.90;;;;;;5044482;28;20037;-66
2022/10/27 03:25:42;;;;;;;14.68;5.30;;;7.90;99.90;;;;;;5051094;28;20041;-68
2022/10/27 03:28:09;;;;;;;11.60;5.60;;;7.90;99.90;;;;;;5046731;28;20147;-68
2022/10/27 03:30:34;;;;;;;11.57;5.18;;;7.90;99.90;;;;;;5044254;28;20090;-68
2022/10/27 03:33:00;;;;;;;11.13;4.95;;;8.00;99.90;;;;;;5038815;28;20541;-67
2022/10/27 03:35:26;;;;;;;11.32;4.90;;;8.00;99.90;;;;;;5048058;28;20041;-67
2022/10/27 03:37:56;;;;;;;15.27;5.60;;;8.10;99.90;;;;;;5045254;28;20045;-67
2022/10/27 03:40:22;;;;;;;14.82;6.72;;;8.10;99.90;;;;;;5039618;28;20727;-67
2022/10/27 03:42:48;;;;;;;10.70;5.60;;;8.10;99.90;;;;;;5031874;28;20039;-69
2022/10/27 03:45:13;;;;;;;11.90;5.35;;;8.10;99.90;;;;;;5036098;28;20436;-65
2022/10/27 03:47:39;;;;;;;9.68;5.50;;;8.10;99.90;;;;;;5049010;28;20539;-66
2022/10/27 03:50:05;;;;;;;8.40;4.88;;;8.10;99.90;;;;;;5040809;28;20029;-67
2022/10/27 03:52:31;;;;;;;18.65;5.20;;;8.00;99.90;;;;;;5043009;28;20048;-67
2022/10/27 03:54:56;;;;;;;11.18;5.45;;;8.00;99.90;;;;;;5044634;28;20021;-69
2022/10/27 03:57:22;;;;;;;13.50;6.55;;;8.00;99.90;;;;;;5039855;28;20158;-65
2022/10/27 03:59:48;;;;;;;9.35;5.47;;;8.00;99.90;;;;;;5030397;28;20555;-66
2022/10/27 04:02:13;;;;;;;16.80;5.43;;;7.90;99.90;;;;;;5045293;28;20535;-66
2022/10/27 04:04:39;;;;;;;10.38;5.70;;;7.80;99.90;;;;;;5040717;28;20021;-67
2022/10/27 04:07:04;;;;;;;14.63;6.55;;;7.70;99.90;;;;;;5043176;28;20094;-63
2022/10/27 04:09:30;;;;;;;16.08;7.13;;;7.70;99.90;;;;;;5040519;28;20044;-66
2022/10/27 04:11:56;;;;;;;9.43;5.78;;;7.80;99.90;;;;;;5039043;28;20514;-67
2022/10/27 04:14:21;;;;;;;13.80;7.88;;;7.80;99.90;;;;;;5041697;28;20104;-67
2022/10/27 04:16:50;;;;;;;15.13;6.25;;;7.70;99.90;;;;;;5039076;28;20029;-64
2022/10/27 04:19:17;;;;;;;11.93;6.13;;;7.70;99.90;;;;;;5040094;28;20670;-66
2022/10/27 04:21:42;;;;;;;12.23;5.60;;;7.60;99.90;;;;;;5043372;28;20043;-66
2022/10/27 04:24:08;;;;;;;11.57;5.80;;;7.60;99.90;;;;;;5041484;28;20029;-66
2022/10/27 04:26:34;;;;;;;12.48;6.32;;;7.70;99.90;;;;;;5040422;28;20112;-64
2022/10/27 04:28:59;;;;;;;8.63;5.20;;;7.70;99.90;;;;;;5043891;28;20032;-64
2022/10/27 04:31:25;;;;;;;10.65;5.57;;;7.60;99.90;;;;;;5039736;28;20039;-68
2022/10/27 04:33:51;;;;;;;10.07;5.15;;;7.60;99.90;;;;;;5040751;28;20101;-66
2022/10/27 04:36:16;;;;;;;10.00;4.82;;;7.70;99.90;;;;;;5042108;28;20598;-64
2022/10/27 04:38:42;;;;;;;14.07;5.55;;;7.70;99.90;;;;;;5044500;28;20095;-66
2022/10/27 04:41:07;;;;;;;9.45;4.85;;;7.80;99.90;;;;;;5037342;28;20099;-64
2022/10/27 04:43:33;;;;;;;12.23;5.50;;;7.80;99.90;;;;;;5038784;28;20025;-67
2022/10/27 04:45:59;;;;;;;10.90;4.53;;;7.80;99.90;;;;;;5040982;28;20654;-65
2022/10/27 04:48:24;;;;;;;9.55;5.13;;;7.80;99.90;;;;;;5046505;28;20119;-67
2022/10/27 04:50:50;;;;;;;13.50;5.40;;;7.70;99.90;;;;;;5046117;28;20056;-66
2022/10/27 04:53:16;;;;;;;11.63;5.78;;;7.60;99.90;;;;;;5047672;28;20029;-65
2022/10/27 04:55:41;;;;;;;11.70;5.38;;;7.60;99.90;;;;;;5045659;28;20029;-68
2022/10/27 04:58:07;;;;;;;10.88;5.25;;;7.60;99.90;;;;;;5045916;28;20045;-66
2022/10/27 05:00:33;;;;;;;14.93;5.45;;;7.50;99.90;;;;;;5055023;28;20033;-66
2022/10/27 05:02:59;;;;;;;10.93;5.18;;;7.50;99.90;;;;;;5049938;28;20029;-65
2022/10/27 05:05:26;;;;;;;15.88;5.72;;;7.50;99.90;;;;;;5050822;28;20028;-65
2022/10/27 05:07:52;;;;;;;14.65;5.35;;;7.50;99.90;;;;;;5051246;28;20029;-66
2022/10/27 05:10:18;;;;;;;9.75;5.70;;;7.50;99.90;;;;;;5049169;28;20032;-66
2022/10/27 05:12:44;;;;;;;10.60;5.35;;;7.40;99.90;;;;;;5050164;28;20296;-65
2022/10/27 05:15:09;;;;;;;11.82;5.97;;;7.30;99.90;;;;;;5050113;28;20045;-64
2022/10/27 05:17:36;;;;;;;12.43;5.05;;;7.30;99.90;;;;;;5046558;28;20041;-64
2022/10/27 05:20:02;;;;;;;14.45;5.10;;;7.30;99.90;;;;;;5030528;28;20079;-65
2022/10/27 05:22:28;;;;;;;14.65;5.95;;;7.30;99.90;;;;;;5051551;28;20041;-65
2022/10/27 05:24:53;;;;;;;12.32;5.90;;;7.40;99.90;;;;;;5049292;28;20032;-64
2022/10/27 05:27:19;;;;;;;11.13;5.20;;;7.40;99.90;;;;;;5051670;28;20090;-63
2022/10/27 05:29:44;;;;;;;10.13;5.30;;;7.40;99.90;;;;;;5060984;28;20047;-66
2022/10/27 05:32:10;;;;;;;15.02;5.93;;;7.40;99.90;;;;;;5051951;28;20033;-66
2022/10/27 05:34:36;;;;;;;23.92;5.63;;;7.50;99.90;;;;;;5047973;28;20393;-68
2022/10/27 05:37:01;;;;;;;11.60;5.75;;;7.50;99.90;;;;;;5049213;28;20033;-69
2022/10/27 05:39:27;;;;;;;9.63;5.00;;;7.40;99.90;;;;;;5046192;28;20037;-65
2022/10/27 05:41:52;;;;;;;8.68;4.90;;;7.40;99.90;;;;;;5049473;28;20029;-64
2022/10/27 05:44:18;;;;;;;10.77;5.28;;;7.40;99.90;;;;;;5041452;28;20041;-66
2022/10/27 05:46:44;;;;;;;11.20;5.55;;;7.40;99.90;;;;;;5046697;28;20414;-69
2022/10/27 05:49:09;;;;;;;63.13;7.22;;;7.50;99.90;;;;;;5048409;28;20040;-68
2022/10/27 05:51:35;;;;;;;11.68;5.70;;;7.50;99.90;;;;;;5040621;28;20479;-65
2022/10/27 05:54:01;;;;;;;170.38;8.38;;;7.40;99.90;;;;;;5045530;28;20517;-65
2022/10/27 05:56:26;;;;;;;24.50;5.63;;;7.40;99.90;;;;;;5051065;28;20037;-66
2022/10/27 05:58:52;;;;;;;41.15;5.38;;;7.30;99.90;;;;;;5047865;28;20048;-65
2022/10/27 06:01:18;;;;;;;42.05;5.30;;;7.40;99.90;;;;;;5049527;28;20060;-66
2022/10/27 06:03:44;;;;;;;9.82;4.90;;;7.30;99.90;;;;;;5049229;28;20044;-68
2022/10/27 06:06:09;;;;;;;8.25;4.68;;;7.30;99.90;;;;;;5047247;28;20768;-64
2022/10/27 06:08:35;;;;;;;9.80;4.35;;;7.30;99.90;;;;;;5048784;28;20388;-65
2022/10/27 06:11:01;;;;;;;12.55;4.57;;;7.20;99.90;;;;;;5047468;28;20039;-67
2022/10/27 06:13:27;;;;;;;8.55;4.72;;;7.30;99.90;;;;;;5048114;28;20461;-65
2022/10/27 06:15:53;;;;;;;11.27;5.13;;;7.30;99.90;;;;;;5047024;28;20094;-65
2022/10/27 06:18:18;;;;;;;9.57;4.53;;;7.30;99.90;;;;;;5046664;28;20523;-65
2022/10/27 06:20:44;;;;;;;14.23;4.90;;;7.40;99.90;;;;;;5045914;28;20532;-68
2022/10/27 06:23:09;;;;;;;10.70;4.68;;;7.40;99.90;;;;;;5047945;28;20041;-66
2022/10/27 06:25:35;;;;;;;8.65;4.60;;;7.30;99.90;;;;;;5048511;28;20386;-65
2022/10/27 06:28:01;;;;;;;7.50;4.50;;;7.40;99.90;;;;;;5051141;28;20753;-64
2022/10/27 06:30:26;;;;;;;10.23;5.00;;;7.30;99.90;;;;;;5056412;28;20036;-65
2022/10/27 06:32:52;;;;;;;8.05;4.97;;;7.40;99.90;;;;;;5048843;28;20499;-65
2022/10/27 06:35:18;;;;;;;12.13;5.00;;;7.40;99.90;;;;;;5036193;28;20082;-66
2022/10/27 06:37:45;;;;;;;13.50;4.55;;;7.40;99.90;;;;;;5046903;28;20043;-68
2022/10/27 06:40:13;;;;;;;9.13;5.03;;;7.40;99.90;;;;;;5044143;28;20032;-65
2022/10/27 06:42:39;;;;;;;11.05;4.88;;;7.30;99.90;;;;;;5047966;28;20060;-64
2022/10/27 06:45:05;;;;;;;11.75;5.57;;;7.30;99.90;;;;;;5047079;28;20079;-65
2022/10/27 06:47:31;;;;;;;17.40;5.97;;;7.40;99.90;;;;;;5045527;28;20128;-66
2022/10/27 06:49:58;;;;;;;18.70;6.43;;;7.40;99.90;;;;;;5046866;28;20136;-63
2022/10/27 06:52:24;;;;;;;10.82;6.05;;;7.50;99.90;;;;;;5046852;28;20033;-66
2022/10/27 06:54:49;;;;;;;18.13;7.03;;;7.60;99.90;;;;;;5047905;28;20033;-66
2022/10/27 06:57:15;;;;;;;18.33;6.97;;;7.70;99.90;;;;;;5046664;28;20532;-67
2022/10/27 06:59:40;;;;;;;16.40;6.85;;;7.80;99.90;;;;;;5048761;28;20059;-64
2022/10/27 07:02:08;;;;;;;22.23;7.13;;;7.80;99.90;;;;;;5045238;28;20025;-63
2022/10/27 07:04:34;;;;;;;16.02;5.80;;;7.90;99.90;;;;;;5047813;28;20033;-65
2022/10/27 07:07:00;;;;;;;14.95;6.88;;;7.80;99.90;;;;;;5045660;28;20025;-67
2022/10/27 07:09:25;;;;;;;14.27;6.43;;;7.80;99.90;;;;;;5047482;28;20061;-65
2022/10/27 07:11:51;;;;;;;13.73;6.97;;;7.90;99.90;;;;;;5047702;28;20035;-64
2022/10/27 07:14:16;;;;;;;17.02;7.90;;;8.00;99.90;;;;;;5046884;28;20033;-66
2022/10/27 07:16:42;;;;;;;21.15;8.07;;;8.20;99.90;;;;;;5047936;28;20033;-66
2022/10/27 07:19:08;;;;;;;17.45;7.18;;;8.30;99.90;;;;;;5045502;28;20047;-66
2022/10/27 07:21:33;;;;;;;16.80;7.38;;;8.30;99.90;;;;;;5045927;28;20032;-66
2022/10/27 07:23:59;;;;;;;17.20;7.45;;;8.40;99.90;;;;;;5047171;28;20025;-66
2022/10/27 07:26:24;;;;;;;22.67;7.45;;;8.40;99.90;;;;;;5034501;28;20477;-67
2022/10/27 07:28:50;;;;;;;17.50;7.38;;;8.50;99.90;;;;;;5046781;28;20029;-72
2022/10/27 07:31:16;;;;;;;17.95;8.00;;;8.60;99.90;;;;;;5040357;28;20114;-71
2022/10/27 07:33:41;;;;;;;22.67;8.60;;;8.80;99.90;;;;;;5048680;28;20428;-71
2022/10/27 07:36:07;;;;;;;15.90;7.10;;;9.10;99.90;;;;;;5046562;28;20021;-70
2022/10/27 07:38:33;;;;;;;18.55;6.78;;;9.30;99.90;;;;;;5047999;28;20049;-70
2022/10/27 07:40:59;;;;;;;29.13;8.13;;;9.30;99.90;;;;;;5048365;28;20529;-67
2022/10/27 07:43:24;;;;;;;15.90;6.25;;;9.40;99.90;;;;;;5046983;28;20116;-71
2022/10/27 07:45:50;;;;;;;15.73;7.78;;;9.50;99.90;;;;;;5046595;28;20088;-70
2022/10/27 07:48:16;;;;;;;21.25;9.15;;;9.60;99.90;;;;;;5045985;28;20037;-69
2022/10/27 07:50:43;;;;;;;16.60;8.15;;;9.80;99.90;;;;;;5047222;28;20044;-68
2022/10/27 07:53:10;;;;;;;19.85;8.45;;;10.00;99.90;;;;;;5046891;28;20021;-68
2022/10/27 07:55:36;;;;;;;18.02;8.38;;;10.30;99.90;;;;;;5048803;28;20037;-69
2022/10/27 07:58:08;;;;;;;23.05;9.88;;;10.60;99.90;;;;;;5046319;28;20041;-69
2022/10/27 08:00:37;;;;;;;20.95;10.25;;;10.80;99.90;;;;;;5048213;28;20082;-70
2022/10/27 08:03:04;;;;;;;25.88;10.70;;;11.00;99.90;;;;;;5046249;28;20048;-69
2022/10/27 08:05:33;;;;;;;26.25;10.73;;;11.30;99.90;;;;;;5046499;28;20068;-71
2022/10/27 08:08:00;;;;;;;32.35;10.82;;;11.60;99.90;;;;;;5044964;28;20120;-70
2022/10/27 08:10:26;;;;;;;14.65;7.13;;;11.90;99.90;;;;;;5038661;28;20052;-70
2022/10/27 08:12:52;;;;;;;20.35;8.90;;;12.10;99.90;;;;;;5047652;28;20107;-70
2022/10/27 08:15:18;;;;;;;27.05;9.30;;;12.10;99.90;;;;;;5047681;28;20117;-70
2022/10/27 08:17:44;;;;;;;21.00;8.77;;;12.40;99.90;;;;;;5047915;28;20509;-68
2022/10/27 08:20:09;;;;;;;29.35;7.55;;;12.70;99.90;;;;;;5044461;28;20098;-68
2022/10/27 08:22:35;;;;;;;29.67;8.43;;;13.10;99.90;;;;;;5048089;28;20107;-70
2022/10/27 08:25:01;;;;;;;19.02;7.45;;;13.60;99.90;;;;;;5044572;28;20123;-71
2022/10/27 08:27:27;;;;;;;29.67;8.15;;;13.80;99.90;;;;;;5047726;28;20041;-70
2022/10/27 08:29:52;;;;;;;18.75;7.20;;;14.00;99.90;;;;;;5046574;28;20051;-69
2022/10/27 08:32:18;;;;;;;23.15;6.50;;;14.20;99.90;;;;;;5050956;28;20431;-69
2022/10/27 08:34:44;;;;;;;16.92;6.93;;;14.50;99.90;;;;;;5048667;28;20497;-70
2022/10/27 08:37:09;;;;;;;21.05;6.20;;;14.70;99.90;;;;;;5045190;28;20037;-70
2022/10/27 08:39:35;;;;;;;15.85;5.72;;;14.90;99.90;;;;;;5051671;28;20492;-71
2022/10/27 08:42:06;;;;;;;22.83;6.47;;;15.20;99.90;;;;;;5048580;28;20091;-69
2022/10/27 08:44:50;;;;;;;20.17;5.97;;;15.50;99.90;;;;;;5051190;28;20596;-68
2022/10/27 08:47:22;;;;;;;16.98;5.50;;;15.70;99.90;;;;;;5051823;28;20037;-70
2022/10/27 08:49:59;;;;;;;16.60;5.47;;;15.90;99.90;;;;;;5050587;28;20098;-69
2022/10/27 08:52:40;;;;;;;15.05;5.03;;;16.10;99.90;;;;;;5046463;28;20052;-70
2022/10/27 08:55:12;;;;;;;12.30;4.72;;;16.40;99.90;;;;;;5050892;28;20091;-70
2022/10/27 08:57:41;;;;;;;14.25;5.15;;;16.60;99.90;;;;;;5049934;28;20516;-68
2022/10/27 09:00:13;;;;;;;19.80;5.18;;;16.80;99.90;;;;;;5048853;28;20025;-71
2022/10/27 09:02:52;;;;;;;11.45;4.25;;;17.00;99.90;;;;;;5050618;28;20029;-69
2022/10/27 09:05:20;;;;;;;14.25;4.43;;;17.10;99.90;;;;;;5049622;28;20061;-69
2022/10/27 09:08:29;;;;;;;16.20;4.32;;;17.20;99.90;;;;;;5050748;28;20033;-70
2022/10/27 09:11:20;;;;;;;15.23;3.95;;;17.30;99.90;;;;;;5016853;28;20041;-73
2022/10/27 09:14:12;;;;;;;17.50;5.03;;;17.50;99.90;;;;;;5048011;28;20466;-68
2022/10/27 09:16:45;;;;;;;18.98;3.67;;;17.60;99.90;;;;;;5051116;28;20033;-70
2022/10/27 09:19:28;;;;;;;15.27;3.60;;;17.80;99.90;;;;;;5030841;28;20041;-71
2022/10/27 09:21:54;;;;;;;12.05;3.65;;;18.00;99.90;;;;;;5044956;28;20561;-72
2022/10/27 09:24:24;;;;;;;18.98;4.25;;;18.20;99.90;;;;;;5050043;28;20131;-73
2022/10/27 09:26:52;;;;;;;15.20;3.67;;;18.30;99.90;;;;;;5051513;28;20405;-71
2022/10/27 09:29:20;;;;;;;12.43;3.10;;;18.50;99.90;;;;;;5048256;28;20048;-70
2022/10/27 09:32:11;;;;;;;14.45;3.42;;;18.60;99.90;;;;;;5050576;28;20097;-70
2022/10/27 09:34:44;;;;;;;10.38;2.88;;;18.70;99.90;;;;;;5042994;28;20814;-70
2022/10/27 09:37:15;;;;;;;14.32;3.00;;;18.80;99.90;;;;;;5046541;28;20051;-70
2022/10/27 09:39:49;;;;;;;11.90;3.10;;;18.80;99.90;;;;;;5040396;28;20043;-72
2022/10/27 09:42:15;;;;;;;10.90;3.72;;;18.90;99.90;;;;;;5041647;28;20786;-71
2022/10/27 09:44:52;;;;;;;11.70;3.53;;;18.90;99.90;;;;;;5035962;28;20192;-70
2022/10/27 09:47:19;;;;;;;15.48;3.25;;;18.90;99.90;;;;;;5049796;28;20029;-71
2022/10/27 09:49:47;;;;;;;12.00;3.05;;;19.00;99.90;;;;;;5046720;28;20094;-69
2022/10/27 09:52:22;;;;;;;12.10;3.80;;;19.30;99.90;;;;;;5049125;28;20921;-71
2022/10/27 09:54:53;;;;;;;14.25;3.42;;;19.50;99.90;;;;;;5048072;28;20834;-69
2022/10/27 09:57:22;;;;;;;9.95;3.22;;;19.50;99.90;;;;;;5048543;28;20128;-75
2022/10/27 10:00:20;;;;;;;14.95;2.92;;;19.50;99.90;;;;;;5049224;28;20033;-76
2022/10/27 10:03:24;;;;;;;15.52;3.55;;;19.50;99.90;;;;;;5050286;28;20041;-71
2022/10/27 10:06:06;;;;;;;10.45;3.08;;;19.50;99.90;;;;;;4987404;28;20041;-74
2022/10/27 10:08:34;;;;;;;11.55;3.08;;;19.60;99.90;;;;;;4986314;28;20046;-72
2022/10/27 10:11:03;;;;;;;13.88;3.20;;;19.70;99.90;;;;;;4986263;28;20127;-72
2022/10/27 10:13:36;;;;;;;15.18;3.00;;;19.80;99.90;;;;;;4985309;28;20031;-73
2022/10/27 10:16:14;;;;;;;7.00;2.47;;;19.90;99.90;;;;;;4987154;28;20121;-72
2022/10/27 10:18:45;;;;;;;12.95;2.88;;;19.90;99.90;;;;;;4985880;28;20415;-75
2022/10/27 10:21:12;;;;;;;9.43;2.90;;;20.00;99.90;;;;;;4982484;28;20042;-73
2022/10/27 10:23:55;;;;;;;17.08;3.35;;;20.20;99.90;;;;;;4987489;28;20054;-72
2022/10/27 10:26:25;;;;;;;11.95;2.75;;;20.40;99.90;;;;;;4986949;28;20558;-72
2022/10/27 10:28:55;;;;;;;11.30;3.05;;;20.50;99.90;;;;;;4982310;28;20119;-72
2022/10/27 10:31:24;;;;;;;11.52;2.65;;;20.60;99.90;;;;;;4978148;28;20503;-73
2022/10/27 10:33:52;;;;;;;17.48;2.95;;;20.60;99.90;;;;;;4985707;28;20041;-75
2022/10/27 10:36:26;;;;;;;8.93;2.65;;;20.50;99.90;;;;;;5009292;28;20094;-74
2022/10/27 10:38:56;;;;;;;13.70;2.90;;;20.40;99.90;;;;;;5045981;28;20041;-77
2022/10/27 10:41:23;;;;;;;14.27;3.08;;;20.60;99.90;;;;;;5045706;28;20170;-77
2022/10/27 10:44:08;;;;;;;11.50;2.33;;;20.80;99.90;;;;;;5046547;28;20060;-76
2022/10/27 10:46:34;;;;;;;9.30;2.70;;;20.90;99.90;;;;;;5047682;28;20053;-76
2022/10/27 10:49:01;;;;;;;5.72;2.40;;;20.90;99.90;;;;;;5046921;28;20044;-72
2022/10/27 10:51:30;;;;;;;9.50;2.42;;;21.00;99.90;;;;;;5047710;28;20033;-75
2022/10/27 10:54:05;;;;;;;11.23;2.58;;;21.10;99.90;;;;;;5046869;28;20056;-80
2022/10/27 10:56:34;;;;;;;13.45;2.63;;;21.20;99.90;;;;;;5048546;28;20072;-80
2022/10/27 10:59:10;;;;;;;8.07;2.63;;;21.20;99.90;;;;;;5048065;28;20041;-72
2022/10/27 11:01:39;;;;;;;12.25;2.88;;;21.40;99.90;;;;;;5045190;28;20035;-79
2022/10/27 11:04:05;;;;;;;14.60;3.00;;;21.60;99.90;;;;;;5042178;28;20021;-77
2022/10/27 11:06:31;;;;;;;10.43;2.60;;;21.70;99.90;;;;;;5046688;28;20089;-78
2022/10/27 11:09:02;;;;;;;15.15;2.90;;;21.90;99.90;;;;;;5048128;28;20101;-75
2022/10/27 11:11:33;;;;;;;8.23;2.72;;;21.90;99.90;;;;;;5045021;28;20039;-75
2022/10/27 11:14:10;;;;;;;9.80;2.45;;;22.00;99.90;;;;;;5048090;28;20029;-72
2022/10/27 11:16:38;;;;;;;11.48;2.67;;;21.90;99.90;;;;;;5044920;28;20033;-76
2022/10/27 11:19:14;;;;;;;8.98;2.85;;;21.80;99.90;;;;;;5038700;28;20539;-77
2022/10/27 11:21:55;;;;;;;13.00;2.70;;;21.80;99.90;;;;;;5048759;28;20025;-80
2022/10/27 11:24:48;;;;;;;12.15;2.80;;;21.90;99.90;;;;;;5047653;28;20039;-77
2022/10/27 11:27:26;;;;;;;10.02;2.90;;;22.00;99.90;;;;;;5047650;28;20033;-75
2022/10/27 11:30:10;;;;;;;15.00;2.67;;;22.10;99.90;;;;;;5047212;28;20074;-77
2022/10/27 11:33:13;;;;;;;10.57;2.28;;;22.20;99.90;;;;;;5047480;28;20033;-74
2022/10/27 11:35:54;;;;;;;13.52;2.75;;;22.40;99.90;;;;;;5043463;28;20057;-77
2022/10/27 11:38:28;;;;;;;7.60;2.72;;;22.20;99.90;;;;;;5047519;28;20116;-73
2022/10/27 11:41:07;;;;;;;11.50;2.75;;;22.10;99.90;;;;;;5048570;28;20021;-75
2022/10/27 11:43:48;;;;;;;17.08;2.92;;;22.20;99.90;;;;;;5049000;28;20052;-76
2022/10/27 11:46:34;;;;;;;6.53;2.70;;;22.20;99.90;;;;;;5043298;28;20175;-77
2022/10/27 11:49:30;;;;;;;11.55;2.70;;;22.40;99.90;;;;;;5042823;28;20035;-74
2022/10/27 11:52:11;;;;;;;12.18;2.80;;;22.60;99.90;;;;;;5043712;28;20717;-74
2022/10/27 11:54:37;;;;;;;9.32;2.38;;;22.70;99.90;;;;;;5041292;28;20021;-74
2022/10/27 11:57:25;;;;;;;9.70;2.60;;;22.70;99.90;;;;;;5045306;28;20025;-74
2022/10/27 12:00:08;;;;;;;9.75;3.22;;;22.90;99.90;;;;;;5041703;28;20037;-78
2022/10/27 12:03:03;;;;;;;9.57;2.55;;;23.20;99.90;;;;;;5046599;28;20036;-80
2022/10/27 12:05:37;;;;;;;9.13;2.67;;;23.20;99.90;;;;;;4979188;28;20057;-80
2022/10/27 12:08:34;;;;;;;16.10;2.67;;;23.60;99.90;;;;;;5044281;28;20021;-72
2022/10/27 12:11:14;;;;;;;8.07;2.88;;;23.90;99.90;;;;;;5043018;28;20043;-79
2022/10/27 12:13:42;;;;;;;;;;;24.10;99.90;;;;;;5046161;28;20503;-79
2022/10/27 12:16:20;;;;;;;13.98;2.25;;;24.00;99.90;;;;;;5044428;28;19920;-78
2022/10/27 12:18:51;;;;;;;11.48;2.30;;;24.20;99.90;;;;;;5046125;28;20051;-74
2022/10/27 12:21:36;;;;;;;7.90;2.90;;;24.20;99.90;;;;;;5038561;28;20131;-76
2022/10/27 12:24:12;;;;;;;18.60;2.83;;;24.10;99.90;;;;;;5044010;28;20029;-72
2022/10/27 12:27:09;;;;;;;11.65;2.60;;;24.20;99.90;;;;;;5039472;28;20096;-78
2022/10/27 12:29:41;;;;;;;10.75;2.53;;;24.00;99.90;;;;;;5043341;28;20725;-79
2022/10/27 12:32:22;;;;;;;9.13;2.40;;;24.00;99.90;;;;;;5044976;28;20021;-73
2022/10/27 12:35:09;;;;;;;10.38;2.33;;;24.10;99.90;;;;;;5041220;28;20096;-74
2022/10/27 12:37:52;;;;;;;7.07;2.38;;;24.20;99.90;;;;;;5042482;28;20394;-74
2022/10/27 12:40:42;;;;;;;7.07;2.13;;;24.40;99.90;;;;;;5041921;28;20041;-79
2022/10/27 12:43:41;;;;;;;12.93;2.47;;;24.60;99.90;;;;;;5046771;28;20033;-77
2022/10/27 12:46:44;;;;;;;10.43;2.20;;;24.90;99.90;;;;;;5033562;28;20710;-72
2022/10/27 12:49:32;;;;;;;13.25;2.65;;;25.00;99.90;;;;;;5040932;28;20083;-83
2022/10/27 12:52:20;;;;;;;10.43;1.90;;;24.90;98.70;;;;;;5041247;28;20024;-76
2022/10/27 12:55:14;;;;;;;16.17;2.42;;;24.70;98.40;;;;;;5043822;28;20035;-78
2022/10/27 12:57:39;;;;;;;7.30;2.10;;;24.60;97.80;;;;;;5045717;28;20098;-83
2022/10/27 13:00:11;;;;;;;9.40;2.28;;;24.60;98.70;;;;;;5044354;28;20454;-69
2022/10/27 13:02:47;;;;;;;10.63;2.40;;;24.70;97.20;;;;;;5045693;28;20068;-78
2022/10/27 13:05:36;;;;;;;8.48;2.08;;;24.70;97.00;;;;;;5046493;28;20477;-80